Apollo Usa61957 — WDJ8625 — position and weather

sailwx.info

Track history (hours):
 
Tides and Currents Weather Stations Pressure Air Temp Water Temp Dewpoint Dewpoint Depression Visibility Wind Speed Wind Dir Waves Ship Positions

Apollo Usa61957

Owner: Nicholson, Donald W, Weston, MA. More information available from US FCC via Universal Licensing System and Coast Guard Vessel Documentation Center.

Last reported at 2018-Apr-20 16:52 UTC. Time now 2018-Jun-23 14:02 UTC.
Position N 39°15' W 075°19'.
Warning: this ship's position is months out of date.

Length 12 m.

Type: Sailing vessel. MMSI: 368018270.

Date/timePositionNaut miles runAvg speedWind from/ knotsBaromVisibWave heightAir tempDewpointWater temp
2018-Apr-20 16:52N 39°15' W 075°19'2 5.8
2018-Apr-20 16:29N 39°16' W 075°21'3 5.9
2018-Apr-20 16:00N 39°18' W 075°23'4 7.2
2018-Apr-20 15:30N 39°21' W 075°26'4 7.6
2018-Apr-20 15:00N 39°24' W 075°29'4 8.4
2018-Apr-20 14:30N 39°27' W 075°33'5 9.1
2018-Apr-20 14:00N 39°32' W 075°33'3 5.9
2018-Apr-20 13:30N 39°33' W 075°36'4 7.9
2018-Apr-20 13:00N 39°33' W 075°41'3 6.4
2018-Apr-20 12:30N 39°32' W 075°46'3 2.5
2018-Apr-20 11:29N 39°32' W 075°49'0 0.0
2018-Apr-20 09:07N 39°32' W 075°49'0 0.0
2018-Apr-20 08:45N 39°32' W 075°49'0 0.0
2018-Apr-20 08:25N 39°32' W 075°49'0 0.0
2018-Apr-20 07:57N 39°32' W 075°49'0 0.0
2018-Apr-20 07:29N 39°32' W 075°49'0 0.0
2018-Apr-20 06:53N 39°32' W 075°49'0 0.0
2018-Apr-20 06:29N 39°32' W 075°49'0 0.0
2018-Apr-20 05:52N 39°32' W 075°49'0 0.0
2018-Apr-20 05:26N 39°32' W 075°49'0 0.0
2018-Apr-20 04:59N 39°32' W 075°49'0 0.0
2018-Apr-20 04:29N 39°32' W 075°49'0 0.0
2018-Apr-20 03:53N 39°32' W 075°49'0 0.0
2018-Apr-20 03:14N 39°32' W 075°49'0 0.0
2018-Apr-20 02:56N 39°32' W 075°49'0 0.0
2018-Apr-20 02:26N 39°32' W 075°49'0 0.0
2018-Apr-20 01:59N 39°32' W 075°49'0 0.0
2018-Apr-20 01:29N 39°32' W 075°49'0 0.0
2018-Apr-20 00:59N 39°32' W 075°49'0 0.0
2018-Apr-20 00:29N 39°32' W 075°49'0 0.0
2018-Apr-19 23:59N 39°32' W 075°49'0 0.0
2018-Apr-19 23:17N 39°32' W 075°49'0 0.0
2018-Apr-19 22:59N 39°32' W 075°49'0 0.0
2018-Apr-19 22:26N 39°32' W 075°49'0 0.0
2018-Apr-19 21:47N 39°32' W 075°49'0 0.0
2018-Apr-19 21:29N 39°32' W 075°49'1 1.8
2018-Apr-19 21:00N 39°32' W 075°50'3 5.2
2018-Apr-19 20:30N 39°31' W 075°53'3 6.1
2018-Apr-19 20:00N 39°29' W 075°56'3 6.6
2018-Apr-19 19:29N 39°27' W 075°60'3 7.0
2018-Apr-19 19:00N 39°25' W 076°03'33 6.3
2018-Apr-19 13:40N 38°56' W 076°25'1 7.6
2018-Apr-19 13:30N 38°55' W 076°25'4 7.6
2018-Apr-19 12:59N 38°51' W 076°27'119 6.8
2018-Apr-18 19:24N 36°52' W 076°19'3 6.5
2018-Apr-18 18:58N 36°50' W 076°17'2 4.1
2018-Apr-18 18:30N 36°48' W 076°18'1 2.3
2018-Apr-18 18:00N 36°46' W 076°18'3 5.4
2018-Apr-18 17:29N 36°44' W 076°17'2 3.6
2018-Apr-18 16:58N 36°43' W 076°14'0 0.1
2018-Apr-18 16:27N 36°43' W 076°14'114 4.0
2018-Apr-17 12:03N 34°51' W 076°41'1 6.2
2018-Apr-17 11:57N 34°51' W 076°41'3 6.1
2018-Apr-17 11:30N 34°48' W 076°41'3 5.9
2018-Apr-17 11:00N 34°45' W 076°41'3 5.7
2018-Apr-17 10:30N 34°42' W 076°41'1 2.3
2018-Apr-17 10:00N 34°43' W 076°40'0 0.0
2018-Apr-17 09:30N 34°43' W 076°40'0 0.0
2018-Apr-17 09:00N 34°43' W 076°40'0 0.0
2018-Apr-17 08:30N 34°43' W 076°40'0 0.0
2018-Apr-17 08:00N 34°43' W 076°40'0 0.0
2018-Apr-17 07:30N 34°43' W 076°40'0 0.0
2018-Apr-17 07:00N 34°43' W 076°40'0 0.0
2018-Apr-17 06:30N 34°43' W 076°40'0 0.0
2018-Apr-17 06:00N 34°43' W 076°40'0 0.0
2018-Apr-17 05:30N 34°43' W 076°40'0 0.0
2018-Apr-17 05:00N 34°43' W 076°40'0 0.0
2018-Apr-17 04:30N 34°43' W 076°40'0 0.0
2018-Apr-17 04:00N 34°43' W 076°40'0 0.0
2018-Apr-17 03:30N 34°43' W 076°40'0 0.0
2018-Apr-17 03:00N 34°43' W 076°40'0 0.0
2018-Apr-17 02:30N 34°43' W 076°40'0 0.0
2018-Apr-17 02:00N 34°43' W 076°40'0 0.0
2018-Apr-17 01:30N 34°43' W 076°40'0 0.0
2018-Apr-17 01:00N 34°43' W 076°40'0 0.0
2018-Apr-17 00:30N 34°43' W 076°40'0 0.0
2018-Apr-17 00:00N 34°43' W 076°40'0 0.0
2018-Apr-16 23:30N 34°43' W 076°40'0 0.0
2018-Apr-16 23:00N 34°43' W 076°40'0 0.0
2018-Apr-16 22:30N 34°43' W 076°40'0 0.0
2018-Apr-16 22:00N 34°43' W 076°40'0 0.0
2018-Apr-16 21:30N 34°43' W 076°40'0 0.0
2018-Apr-16 21:00N 34°43' W 076°40'0 0.0
2018-Apr-16 20:30N 34°43' W 076°40'0 0.0
2018-Apr-16 20:00N 34°43' W 076°40'0 0.0
2018-Apr-16 19:30N 34°43' W 076°40'0 0.0
2018-Apr-16 18:57N 34°43' W 076°40'0 0.0
2018-Apr-16 18:30N 34°43' W 076°40'0 0.0
2018-Apr-16 18:00N 34°43' W 076°40'0 0.0
2018-Apr-16 17:30N 34°43' W 076°40'0 0.0
2018-Apr-16 17:00N 34°43' W 076°40'0 0.0
2018-Apr-16 16:30N 34°43' W 076°40'0 0.0
2018-Apr-16 16:00N 34°43' W 076°40'0 0.0
2018-Apr-16 15:30N 34°43' W 076°40'0 0.0
2018-Apr-16 15:00N 34°43' W 076°40'0 0.0
2018-Apr-16 14:30N 34°43' W 076°40'0 0.0
2018-Apr-16 14:00N 34°43' W 076°40'0 0.0
2018-Apr-16 13:30N 34°43' W 076°40'0 0.0
2018-Apr-16 13:00N 34°43' W 076°40'0 0.0
2018-Apr-15 11:06N 34°43' W 076°40'0 0.0
2018-Apr-15 11:00N 34°43' W 076°40'1 1.7
2018-Apr-15 10:30N 34°43' W 076°41'3 6.2
2018-Apr-15 10:00N 34°39' W 076°40'3 5.6
2018-Apr-15 09:29N 34°37' W 076°43'  
Track history (hours):
 
Tides and Currents Weather Stations Pressure Air Temp Water Temp Dewpoint Dewpoint Depression Visibility Wind Speed Wind Dir Waves Ship Positions

Apollo Usa61957

Owner: Nicholson, Donald W, Weston, MA. More information available from US FCC via Universal Licensing System and Coast Guard Vessel Documentation Center.

Last reported at 2018-Apr-20 16:52 UTC. Time now 2018-Jun-23 14:02 UTC.
Position N 39°15' W 075°19'.
Warning: this ship's position is months out of date.

Length 12 m.

Type: Sailing vessel. MMSI: 368018270.

Date/timePositionNaut miles runAvg speedWind from/ knotsBaromVisibWave heightAir tempDewpointWater temp
2018-Apr-20 16:52N 39°15' W 075°19'2 5.8
2018-Apr-20 16:29N 39°16' W 075°21'3 5.9
2018-Apr-20 16:00N 39°18' W 075°23'4 7.2
2018-Apr-20 15:30N 39°21' W 075°26'4 7.6
2018-Apr-20 15:00N 39°24' W 075°29'4 8.4
2018-Apr-20 14:30N 39°27' W 075°33'5 9.1
2018-Apr-20 14:00N 39°32' W 075°33'3 5.9
2018-Apr-20 13:30N 39°33' W 075°36'4 7.9
2018-Apr-20 13:00N 39°33' W 075°41'3 6.4
2018-Apr-20 12:30N 39°32' W 075°46'3 2.5
2018-Apr-20 11:29N 39°32' W 075°49'0 0.0
2018-Apr-20 09:07N 39°32' W 075°49'0 0.0
2018-Apr-20 08:45N 39°32' W 075°49'0 0.0
2018-Apr-20 08:25N 39°32' W 075°49'0 0.0
2018-Apr-20 07:57N 39°32' W 075°49'0 0.0
2018-Apr-20 07:29N 39°32' W 075°49'0 0.0
2018-Apr-20 06:53N 39°32' W 075°49'0 0.0
2018-Apr-20 06:29N 39°32' W 075°49'0 0.0
2018-Apr-20 05:52N 39°32' W 075°49'0 0.0
2018-Apr-20 05:26N 39°32' W 075°49'0 0.0
2018-Apr-20 04:59N 39°32' W 075°49'0 0.0
2018-Apr-20 04:29N 39°32' W 075°49'0 0.0
2018-Apr-20 03:53N 39°32' W 075°49'0 0.0
2018-Apr-20 03:14N 39°32' W 075°49'0 0.0
2018-Apr-20 02:56N 39°32' W 075°49'0 0.0
2018-Apr-20 02:26N 39°32' W 075°49'0 0.0
2018-Apr-20 01:59N 39°32' W 075°49'0 0.0
2018-Apr-20 01:29N 39°32' W 075°49'0 0.0
2018-Apr-20 00:59N 39°32' W 075°49'0 0.0
2018-Apr-20 00:29N 39°32' W 075°49'0 0.0
2018-Apr-19 23:59N 39°32' W 075°49'0 0.0
2018-Apr-19 23:17N 39°32' W 075°49'0 0.0
2018-Apr-19 22:59N 39°32' W 075°49'0 0.0
2018-Apr-19 22:26N 39°32' W 075°49'0 0.0
2018-Apr-19 21:47N 39°32' W 075°49'0 0.0
2018-Apr-19 21:29N 39°32' W 075°49'1 1.8
2018-Apr-19 21:00N 39°32' W 075°50'3 5.2
2018-Apr-19 20:30N 39°31' W 075°53'3 6.1
2018-Apr-19 20:00N 39°29' W 075°56'3 6.6
2018-Apr-19 19:29N 39°27' W 075°60'3 7.0
2018-Apr-19 19:00N 39°25' W 076°03'33 6.3
2018-Apr-19 13:40N 38°56' W 076°25'1 7.6
2018-Apr-19 13:30N 38°55' W 076°25'4 7.6
2018-Apr-19 12:59N 38°51' W 076°27'119 6.8
2018-Apr-18 19:24N 36°52' W 076°19'3 6.5
2018-Apr-18 18:58N 36°50' W 076°17'2 4.1
2018-Apr-18 18:30N 36°48' W 076°18'1 2.3
2018-Apr-18 18:00N 36°46' W 076°18'3 5.4
2018-Apr-18 17:29N 36°44' W 076°17'2 3.6
2018-Apr-18 16:58N 36°43' W 076°14'0 0.1
2018-Apr-18 16:27N 36°43' W 076°14'114 4.0
2018-Apr-17 12:03N 34°51' W 076°41'1 6.2
2018-Apr-17 11:57N 34°51' W 076°41'3 6.1
2018-Apr-17 11:30N 34°48' W 076°41'3 5.9
2018-Apr-17 11:00N 34°45' W 076°41'3 5.7
2018-Apr-17 10:30N 34°42' W 076°41'1 2.3
2018-Apr-17 10:00N 34°43' W 076°40'0 0.0
2018-Apr-17 09:30N 34°43' W 076°40'0 0.0
2018-Apr-17 09:00N 34°43' W 076°40'0 0.0
2018-Apr-17 08:30N 34°43' W 076°40'0 0.0
2018-Apr-17 08:00N 34°43' W 076°40'0 0.0
2018-Apr-17 07:30N 34°43' W 076°40'0 0.0
2018-Apr-17 07:00N 34°43' W 076°40'0 0.0
2018-Apr-17 06:30N 34°43' W 076°40'0 0.0
2018-Apr-17 06:00N 34°43' W 076°40'0 0.0
2018-Apr-17 05:30N 34°43' W 076°40'0 0.0
2018-Apr-17 05:00N 34°43' W 076°40'0 0.0
2018-Apr-17 04:30N 34°43' W 076°40'0 0.0
2018-Apr-17 04:00N 34°43' W 076°40'0 0.0
2018-Apr-17 03:30N 34°43' W 076°40'0 0.0
2018-Apr-17 03:00N 34°43' W 076°40'0 0.0
2018-Apr-17 02:30N 34°43' W 076°40'0 0.0
2018-Apr-17 02:00N 34°43' W 076°40'0 0.0
2018-Apr-17 01:30N 34°43' W 076°40'0 0.0
2018-Apr-17 01:00N 34°43' W 076°40'0 0.0
2018-Apr-17 00:30N 34°43' W 076°40'0 0.0
2018-Apr-17 00:00N 34°43' W 076°40'0 0.0
2018-Apr-16 23:30N 34°43' W 076°40'0 0.0
2018-Apr-16 23:00N 34°43' W 076°40'0 0.0
2018-Apr-16 22:30N 34°43' W 076°40'0 0.0
2018-Apr-16 22:00N 34°43' W 076°40'0 0.0
2018-Apr-16 21:30N 34°43' W 076°40'0 0.0
2018-Apr-16 21:00N 34°43' W 076°40'0 0.0
2018-Apr-16 20:30N 34°43' W 076°40'0 0.0
2018-Apr-16 20:00N 34°43' W 076°40'0 0.0
2018-Apr-16 19:30N 34°43' W 076°40'0 0.0
2018-Apr-16 18:57N 34°43' W 076°40'0 0.0
2018-Apr-16 18:30N 34°43' W 076°40'0 0.0
2018-Apr-16 18:00N 34°43' W 076°40'0 0.0
2018-Apr-16 17:30N 34°43' W 076°40'0 0.0
2018-Apr-16 17:00N 34°43' W 076°40'0 0.0
2018-Apr-16 16:30N 34°43' W 076°40'0 0.0
2018-Apr-16 16:00N 34°43' W 076°40'0 0.0
2018-Apr-16 15:30N 34°43' W 076°40'0 0.0
2018-Apr-16 15:00N 34°43' W 076°40'0 0.0
2018-Apr-16 14:30N 34°43' W 076°40'0 0.0
2018-Apr-16 14:00N 34°43' W 076°40'0 0.0
2018-Apr-16 13:30N 34°43' W 076°40'0 0.0
2018-Apr-16 13:00N 34°43' W 076°40'0 0.0
2018-Apr-15 11:06N 34°43' W 076°40'0 0.0
2018-Apr-15 11:00N 34°43' W 076°40'1 1.7
2018-Apr-15 10:30N 34°43' W 076°41'3 6.2
2018-Apr-15 10:00N 34°39' W 076°40'3 5.6
2018-Apr-15 09:29N 34°37' W 076°43'  

Dump ship's entire track history